sensor_id;sensor_type;location;lat;lon;timestamp;P1;durP1;ratioP1;P2;durP2;ratioP2
12721;SDS011;6425;50.316;8.114;2023-04-05T00:00:00;7.6;;;6.1;;
12721;SDS011;6425;50.316;8.114;2023-04-05T00:03:00;7.6;;;6.1;;
12721;SDS011;6425;50.316;8.114;2023-04-05T00:06:00;8.8;;;4.6;;
12721;SDS011;6425;50.316;8.114;2023-04-05T00:09:00;6.2;;;4.8;;
12721;SDS011;6425;50.316;8.114;2023-04-05T00:12:00;6.2;;;4.8;;
12721;SDS011;6425;50.316;8.114;2023-04-05T00:15:00;5.9;;;4.7;;
12721;SDS011;6425;50.316;8.114;2023-04-05T00:18:00;5.9;;;4.7;;
12721;SDS011;6425;50.316;8.114;2023-04-05T00:21:00;8.7;;;5.1;;
12721;SDS011;6425;50.316;8.114;2023-04-05T00:24:00;7.4;;;5.3;;
12721;SDS011;6425;50.316;8.114;2023-04-05T00:27:00;7.4;;;5.3;;
12721;SDS011;6425;50.316;8.114;2023-04-05T00:30:00;6.6;;;5.6;;
12721;SDS011;6425;50.316;8.114;2023-04-05T00:33:00;6.6;;;5.6;;
12721;SDS011;6425;50.316;8.114;2023-04-05T00:36:07;8.1;;;5.7;;
12721;SDS011;6425;50.316;8.114;2023-04-05T00:39:00;9.3;;;6.2;;
12721;SDS011;6425;50.316;8.114;2023-04-05T00:42:01;9.3;;;6.2;;
12721;SDS011;6425;50.316;8.114;2023-04-05T00:45:00;8.2;;;6.1;;
12721;SDS011;6425;50.316;8.114;2023-04-05T00:48:00;8.2;;;6.1;;
12721;SDS011;6425;50.316;8.114;2023-04-05T00:51:00;8.7;;;6.3;;
12721;SDS011;6425;50.316;8.114;2023-04-05T00:54:00;8.2;;;6.4;;
12721;SDS011;6425;50.316;8.114;2023-04-05T00:57:00;8.2;;;6.4;;
12721;SDS011;6425;50.316;8.114;2023-04-05T01:00:00;8.5;;;6.2;;
12721;SDS011;6425;50.316;8.114;2023-04-05T01:03:00;8.5;;;6.2;;
12721;SDS011;6425;50.316;8.114;2023-04-05T01:06:03;9.3;;;6.7;;
12721;SDS011;6425;50.316;8.114;2023-04-05T01:09:07;9.8;;;6.9;;
12721;SDS011;6425;50.316;8.114;2023-04-05T01:12:00;9.8;;;6.9;;
12721;SDS011;6425;50.316;8.114;2023-04-05T01:15:00;10.6;;;6.6;;
12721;SDS011;6425;50.316;8.114;2023-04-05T01:18:00;10.6;;;6.6;;
12721;SDS011;6425;50.316;8.114;2023-04-05T01:21:01;8;;;5.9;;
12721;SDS011;6425;50.316;8.114;2023-04-05T01:24:02;9.6;;;6.7;;
12721;SDS011;6425;50.316;8.114;2023-04-05T01:27:01;9.6;;;6.7;;
12721;SDS011;6425;50.316;8.114;2023-04-05T01:30:02;9.7;;;6.3;;
12721;SDS011;6425;50.316;8.114;2023-04-05T01:33:06;9.7;;;6.3;;
12721;SDS011;6425;50.316;8.114;2023-04-05T01:36:00;8.8;;;6.3;;
12721;SDS011;6425;50.316;8.114;2023-04-05T01:39:00;7.2;;;5.8;;
12721;SDS011;6425;50.316;8.114;2023-04-05T01:42:00;7.2;;;5.8;;
12721;SDS011;6425;50.316;8.114;2023-04-05T01:45:00;8.3;;;5.9;;
12721;SDS011;6425;50.316;8.114;2023-04-05T01:48:00;8.3;;;5.9;;
12721;SDS011;6425;50.316;8.114;2023-04-05T01:51:00;7.9;;;6.3;;
12721;SDS011;6425;50.316;8.114;2023-04-05T01:54:00;8.3;;;6.1;;
12721;SDS011;6425;50.316;8.114;2023-04-05T01:57:00;8.3;;;6.1;;
12721;SDS011;6425;50.316;8.114;2023-04-05T02:00:00;8.8;;;6.4;;
12721;SDS011;6425;50.316;8.114;2023-04-05T02:03:00;8.1;;;6.5;;
12721;SDS011;6425;50.316;8.114;2023-04-05T02:06:00;7.9;;;6.6;;
12721;SDS011;6425;50.316;8.114;2023-04-05T02:09:00;8.1;;;6.2;;
12721;SDS011;6425;50.316;8.114;2023-04-05T02:12:00;8.1;;;6.2;;
12721;SDS011;6425;50.316;8.114;2023-04-05T02:15:00;10.6;;;6.6;;
12721;SDS011;6425;50.316;8.114;2023-04-05T02:18:00;9.1;;;6.4;;
12721;SDS011;6425;50.316;8.114;2023-04-05T02:21:00;9.1;;;6.4;;
12721;SDS011;6425;50.316;8.114;2023-04-05T02:24:00;10;;;6.8;;
12721;SDS011;6425;50.316;8.114;2023-04-05T02:27:00;10;;;6.8;;
12721;SDS011;6425;50.316;8.114;2023-04-05T02:30:00;9.8;;;5.8;;
12721;SDS011;6425;50.316;8.114;2023-04-05T02:33:00;10;;;6.2;;
12721;SDS011;6425;50.316;8.114;2023-04-05T02:36:02;10;;;6.2;;
12721;SDS011;6425;50.316;8.114;2023-04-05T02:39:00;10.1;;;6.2;;
12721;SDS011;6425;50.316;8.114;2023-04-05T02:42:00;10.1;;;6.2;;
12721;SDS011;6425;50.316;8.114;2023-04-05T02:45:00;8.5;;;5.8;;
12721;SDS011;6425;50.316;8.114;2023-04-05T02:48:00;9.8;;;6.2;;
12721;SDS011;6425;50.316;8.114;2023-04-05T02:51:00;9.8;;;6.2;;
12721;SDS011;6425;50.316;8.114;2023-04-05T02:54:00;10.6;;;6.2;;
12721;SDS011;6425;50.316;8.114;2023-04-05T02:57:00;10.6;;;6.2;;
12721;SDS011;6425;50.316;8.114;2023-04-05T03:00:00;10.2;;;6.4;;
12721;SDS011;6425;50.316;8.114;2023-04-05T03:03:00;10.2;;;6.1;;
12721;SDS011;6425;50.316;8.114;2023-04-05T03:06:01;10.2;;;6.1;;
12721;SDS011;6425;50.316;8.114;2023-04-05T03:09:00;11.5;;;6.8;;
12721;SDS011;6425;50.316;8.114;2023-04-05T03:12:00;11.5;;;6.8;;
12721;SDS011;6425;50.316;8.114;2023-04-05T03:15:00;9.6;;;7.1;;
12721;SDS011;6425;50.316;8.114;2023-04-05T03:18:00;12;;;6.9;;
12721;SDS011;6425;50.316;8.114;2023-04-05T03:21:00;12;;;6.9;;
12721;SDS011;6425;50.316;8.114;2023-04-05T03:24:00;10.5;;;7.1;;
12721;SDS011;6425;50.316;8.114;2023-04-05T03:27:00;10.5;;;7.1;;
12721;SDS011;6425;50.316;8.114;2023-04-05T03:30:00;10.1;;;6.8;;
12721;SDS011;6425;50.316;8.114;2023-04-05T03:33:00;11;;;6.8;;
12721;SDS011;6425;50.316;8.114;2023-04-05T03:36:00;11;;;6.8;;
12721;SDS011;6425;50.316;8.114;2023-04-05T03:39:00;11;;;6.7;;
12721;SDS011;6425;50.316;8.114;2023-04-05T03:42:00;11;;;6.7;;
12721;SDS011;6425;50.316;8.114;2023-04-05T03:45:00;11.3;;;7.1;;
12721;SDS011;6425;50.316;8.114;2023-04-05T03:48:00;13.4;;;7.1;;
12721;SDS011;6425;50.316;8.114;2023-04-05T03:51:00;13.4;;;7.1;;
12721;SDS011;6425;50.316;8.114;2023-04-05T03:54:00;10.3;;;6.4;;
12721;SDS011;6425;50.316;8.114;2023-04-05T03:57:00;10.3;;;6.4;;
12721;SDS011;6425;50.316;8.114;2023-04-05T04:00:00;10.9;;;6.5;;
12721;SDS011;6425;50.316;8.114;2023-04-05T04:03:00;10.2;;;6.6;;
12721;SDS011;6425;50.316;8.114;2023-04-05T04:06:00;10.2;;;6.6;;
12721;SDS011;6425;50.316;8.114;2023-04-05T04:09:00;8.6;;;6.6;;
12721;SDS011;6425;50.316;8.114;2023-04-05T04:12:00;8.6;;;6.6;;
12721;SDS011;6425;50.316;8.114;2023-04-05T04:15:00;11.7;;;6.7;;
12721;SDS011;6425;50.316;8.114;2023-04-05T04:18:00;12.9;;;7.4;;
12721;SDS011;6425;50.316;8.114;2023-04-05T04:21:00;12.9;;;7.4;;
12721;SDS011;6425;50.316;8.114;2023-04-05T04:24:00;9.4;;;6.9;;
12721;SDS011;6425;50.316;8.114;2023-04-05T04:27:00;10.5;;;6.8;;
12721;SDS011;6425;50.316;8.114;2023-04-05T04:30:00;10.5;;;6.8;;
12721;SDS011;6425;50.316;8.114;2023-04-05T04:33:00;10.5;;;7.2;;
12721;SDS011;6425;50.316;8.114;2023-04-05T04:36:04;10.5;;;7.2;;
12721;SDS011;6425;50.316;8.114;2023-04-05T04:39:00;9.7;;;6.8;;
12721;SDS011;6425;50.316;8.114;2023-04-05T04:42:00;11.3;;;7.4;;
12721;SDS011;6425;50.316;8.114;2023-04-05T04:45:00;11.3;;;7.4;;
12721;SDS011;6425;50.316;8.114;2023-04-05T04:48:00;12.7;;;7.5;;
12721;SDS011;6425;50.316;8.114;2023-04-05T04:51:01;12.7;;;7.5;;
12721;SDS011;6425;50.316;8.114;2023-04-05T04:54:00;10.1;;;6.9;;
12721;SDS011;6425;50.316;8.114;2023-04-05T04:57:00;11;;;7.4;;
12721;SDS011;6425;50.316;8.114;2023-04-05T05:00:00;11;;;7.4;;
12721;SDS011;6425;50.316;8.114;2023-04-05T05:03:00;11.6;;;8;;
12721;SDS011;6425;50.316;8.114;2023-04-05T05:06:00;11.6;;;8;;
12721;SDS011;6425;50.316;8.114;2023-04-05T05:09:00;12.4;;;7.8;;
12721;SDS011;6425;50.316;8.114;2023-04-05T05:12:00;12.3;;;8;;
12721;SDS011;6425;50.316;8.114;2023-04-05T05:15:00;12.3;;;8;;
12721;SDS011;6425;50.316;8.114;2023-04-05T05:18:00;12.1;;;7.1;;
12721;SDS011;6425;50.316;8.114;2023-04-05T05:21:00;12.1;;;7.1;;
12721;SDS011;6425;50.316;8.114;2023-04-05T05:24:00;9.6;;;7.1;;
12721;SDS011;6425;50.316;8.114;2023-04-05T05:27:00;10.9;;;7.2;;
12721;SDS011;6425;50.316;8.114;2023-04-05T05:30:00;10.9;;;7.2;;
12721;SDS011;6425;50.316;8.114;2023-04-05T05:33:00;11.3;;;7.2;;
12721;SDS011;6425;50.316;8.114;2023-04-05T05:36:00;11.3;;;7.2;;
12721;SDS011;6425;50.316;8.114;2023-04-05T05:39:00;13.3;;;7.3;;
12721;SDS011;6425;50.316;8.114;2023-04-05T05:42:00;11.3;;;7.1;;
12721;SDS011;6425;50.316;8.114;2023-04-05T05:45:03;11.3;;;7.1;;
12721;SDS011;6425;50.316;8.114;2023-04-05T05:48:00;9.7;;;6.6;;
12721;SDS011;6425;50.316;8.114;2023-04-05T05:51:00;9.7;;;6.6;;
12721;SDS011;6425;50.316;8.114;2023-04-05T05:54:00;9.8;;;6.3;;
12721;SDS011;6425;50.316;8.114;2023-04-05T05:57:00;10.7;;;6.6;;
12721;SDS011;6425;50.316;8.114;2023-04-05T06:00:00;10.7;;;6.6;;
12721;SDS011;6425;50.316;8.114;2023-04-05T06:03:00;13.4;;;7.4;;
12721;SDS011;6425;50.316;8.114;2023-04-05T06:06:00;13.4;;;7.4;;
12721;SDS011;6425;50.316;8.114;2023-04-05T06:09:00;9.7;;;6.9;;
12721;SDS011;6425;50.316;8.114;2023-04-05T06:12:00;9.4;;;6.4;;
12721;SDS011;6425;50.316;8.114;2023-04-05T06:15:00;9.4;;;6.4;;
12721;SDS011;6425;50.316;8.114;2023-04-05T06:18:00;12.4;;;7.6;;
12721;SDS011;6425;50.316;8.114;2023-04-05T06:21:00;12.4;;;7.6;;
12721;SDS011;6425;50.316;8.114;2023-04-05T06:24:00;11.5;;;6.9;;
12721;SDS011;6425;50.316;8.114;2023-04-05T06:27:00;16.6;;;6.8;;
12721;SDS011;6425;50.316;8.114;2023-04-05T06:30:00;16.6;;;6.8;;
12721;SDS011;6425;50.316;8.114;2023-04-05T06:33:00;12;;;6.7;;
12721;SDS011;6425;50.316;8.114;2023-04-05T06:36:00;12;;;6.7;;
12721;SDS011;6425;50.316;8.114;2023-04-05T06:39:00;8.6;;;6;;
12721;SDS011;6425;50.316;8.114;2023-04-05T06:42:00;8.8;;;6.3;;
12721;SDS011;6425;50.316;8.114;2023-04-05T06:45:00;8.8;;;6.3;;
12721;SDS011;6425;50.316;8.114;2023-04-05T06:48:00;7.7;;;6.2;;
12721;SDS011;6425;50.316;8.114;2023-04-05T06:51:00;7.7;;;6.5;;
12721;SDS011;6425;50.316;8.114;2023-04-05T06:54:00;7.7;;;6.5;;
12721;SDS011;6425;50.316;8.114;2023-04-05T06:57:00;10.9;;;6.9;;
12721;SDS011;6425;50.316;8.114;2023-04-05T07:00:00;10.9;;;6.9;;
12721;SDS011;6425;50.316;8.114;2023-04-05T07:03:00;10.7;;;6.9;;
12721;SDS011;6425;50.316;8.114;2023-04-05T07:06:00;10.8;;;7.1;;
12721;SDS011;6425;50.316;8.114;2023-04-05T07:09:00;10.8;;;7.1;;
12721;SDS011;6425;50.316;8.114;2023-04-05T07:12:01;9.1;;;7.3;;
12721;SDS011;6425;50.316;8.114;2023-04-05T07:15:00;9.1;;;7.3;;
12721;SDS011;6425;50.316;8.114;2023-04-05T07:18:00;12.1;;;8.1;;
12721;SDS011;6425;50.316;8.114;2023-04-05T07:21:00;11;;;7.7;;
12721;SDS011;6425;50.316;8.114;2023-04-05T07:24:00;11;;;7.7;;
12721;SDS011;6425;50.316;8.114;2023-04-05T07:27:00;11.2;;;7.5;;
12721;SDS011;6425;50.316;8.114;2023-04-05T07:30:00;11.2;;;7.5;;
12721;SDS011;6425;50.316;8.114;2023-04-05T07:33:00;10;;;7.7;;
12721;SDS011;6425;50.316;8.114;2023-04-05T07:36:00;13.4;;;7.3;;
12721;SDS011;6425;50.316;8.114;2023-04-05T07:39:00;13.4;;;7.3;;
12721;SDS011;6425;50.316;8.114;2023-04-05T07:42:00;11.2;;;7.3;;
12721;SDS011;6425;50.316;8.114;2023-04-05T07:45:00;11.2;;;7.3;;
12721;SDS011;6425;50.316;8.114;2023-04-05T07:48:00;8.4;;;6.5;;
12721;SDS011;6425;50.316;8.114;2023-04-05T07:51:03;10.9;;;6.8;;
12721;SDS011;6425;50.316;8.114;2023-04-05T07:54:00;10.9;;;6.8;;
12721;SDS011;6425;50.316;8.114;2023-04-05T07:57:00;8.1;;;6.2;;
12721;SDS011;6425;50.316;8.114;2023-04-05T08:00:00;8.1;;;6.2;;
12721;SDS011;6425;50.316;8.114;2023-04-05T08:03:00;7.3;;;6.1;;
12721;SDS011;6425;50.316;8.114;2023-04-05T08:06:07;6.7;;;6.1;;
12721;SDS011;6425;50.316;8.114;2023-04-05T08:09:00;6.7;;;6.1;;
12721;SDS011;6425;50.316;8.114;2023-04-05T08:12:00;8.3;;;6.7;;
12721;SDS011;6425;50.316;8.114;2023-04-05T08:15:00;8.3;;;6.7;;
12721;SDS011;6425;50.316;8.114;2023-04-05T08:18:00;6.5;;;5.9;;
12721;SDS011;6425;50.316;8.114;2023-04-05T08:21:00;7.5;;;6.7;;
12721;SDS011;6425;50.316;8.114;2023-04-05T08:24:00;7.5;;;6.7;;
12721;SDS011;6425;50.316;8.114;2023-04-05T08:27:00;6.9;;;5.9;;
12721;SDS011;6425;50.316;8.114;2023-04-05T08:30:00;6.9;;;5.9;;
12721;SDS011;6425;50.316;8.114;2023-04-05T08:33:00;6.8;;;6.1;;
12721;SDS011;6425;50.316;8.114;2023-04-05T08:36:02;7.9;;;7.1;;
12721;SDS011;6425;50.316;8.114;2023-04-05T08:39:00;7.9;;;7.1;;
12721;SDS011;6425;50.316;8.114;2023-04-05T08:42:02;9.5;;;8.5;;
12721;SDS011;6425;50.316;8.114;2023-04-05T08:45:00;9.5;;;8.5;;
12721;SDS011;6425;50.316;8.114;2023-04-05T08:48:00;9;;;8.3;;
12721;SDS011;6425;50.316;8.114;2023-04-05T08:51:00;9.1;;;8.3;;
12721;SDS011;6425;50.316;8.114;2023-04-05T08:54:00;9.1;;;8.3;;
12721;SDS011;6425;50.316;8.114;2023-04-05T08:57:00;7.9;;;7.2;;
12721;SDS011;6425;50.316;8.114;2023-04-05T09:00:00;7.9;;;7.2;;
12721;SDS011;6425;50.316;8.114;2023-04-05T09:03:00;8.1;;;7.3;;
12721;SDS011;6425;50.316;8.114;2023-04-05T09:06:00;9.4;;;8.5;;
12721;SDS011;6425;50.316;8.114;2023-04-05T09:09:00;9.4;;;8.5;;
12721;SDS011;6425;50.316;8.114;2023-04-05T09:12:00;8.3;;;7.7;;
12721;SDS011;6425;50.316;8.114;2023-04-05T09:15:00;9.7;;;8.9;;
12721;SDS011;6425;50.316;8.114;2023-04-05T09:18:00;9.7;;;8.9;;
12721;SDS011;6425;50.316;8.114;2023-04-05T09:21:01;9.4;;;8.7;;
12721;SDS011;6425;50.316;8.114;2023-04-05T09:24:00;9.4;;;8.7;;
12721;SDS011;6425;50.316;8.114;2023-04-05T09:27:02;8.3;;;7.6;;
12721;SDS011;6425;50.316;8.114;2023-04-05T09:30:00;9.8;;;9;;
12721;SDS011;6425;50.316;8.114;2023-04-05T09:33:00;9.8;;;9;;
12721;SDS011;6425;50.316;8.114;2023-04-05T09:36:00;8.5;;;7.5;;
12721;SDS011;6425;50.316;8.114;2023-04-05T09:39:03;8.5;;;7.5;;
12721;SDS011;6425;50.316;8.114;2023-04-05T09:42:03;9.2;;;8.5;;
12721;SDS011;6425;50.316;8.114;2023-04-05T09:45:00;9;;;8.1;;
12721;SDS011;6425;50.316;8.114;2023-04-05T09:48:00;9;;;8.1;;
12721;SDS011;6425;50.316;8.114;2023-04-05T09:51:03;8.4;;;7.8;;
12721;SDS011;6425;50.316;8.114;2023-04-05T09:54:00;8.4;;;7.8;;
12721;SDS011;6425;50.316;8.114;2023-04-05T09:57:00;9.6;;;8.9;;
12721;SDS011;6425;50.316;8.114;2023-04-05T10:00:00;8.9;;;8.2;;
12721;SDS011;6425;50.316;8.114;2023-04-05T10:03:00;8.9;;;8.2;;
12721;SDS011;6425;50.316;8.114;2023-04-05T10:06:00;9.1;;;8.4;;
12721;SDS011;6425;50.316;8.114;2023-04-05T10:09:00;9.1;;;8.4;;
12721;SDS011;6425;50.316;8.114;2023-04-05T10:12:00;10;;;9.1;;
12721;SDS011;6425;50.316;8.114;2023-04-05T10:15:00;9.7;;;9;;
12721;SDS011;6425;50.316;8.114;2023-04-05T10:18:02;9.7;;;9;;
12721;SDS011;6425;50.316;8.114;2023-04-05T10:21:00;10;;;9.2;;
12721;SDS011;6425;50.316;8.114;2023-04-05T10:24:00;10;;;9.2;;
12721;SDS011;6425;50.316;8.114;2023-04-05T10:27:02;11.1;;;10.2;;
12721;SDS011;6425;50.316;8.114;2023-04-05T10:30:02;10.9;;;10.1;;
12721;SDS011;6425;50.316;8.114;2023-04-05T10:33:02;10.9;;;10.1;;
12721;SDS011;6425;50.316;8.114;2023-04-05T10:36:02;10.9;;;10.1;;
12721;SDS011;6425;50.316;8.114;2023-04-05T10:39:00;10.9;;;10.1;;
12721;SDS011;6425;50.316;8.114;2023-04-05T10:42:00;10.7;;;10;;
12721;SDS011;6425;50.316;8.114;2023-04-05T10:45:02;11;;;10.2;;
12721;SDS011;6425;50.316;8.114;2023-04-05T10:48:01;11;;;10.2;;
12721;SDS011;6425;50.316;8.114;2023-04-05T10:51:00;10.7;;;9.9;;
12721;SDS011;6425;50.316;8.114;2023-04-05T10:54:00;10.7;;;9.9;;
12721;SDS011;6425;50.316;8.114;2023-04-05T10:57:00;11;;;10.3;;
12721;SDS011;6425;50.316;8.114;2023-04-05T11:00:00;11.4;;;10.6;;
12721;SDS011;6425;50.316;8.114;2023-04-05T11:03:00;11.4;;;10.6;;
12721;SDS011;6425;50.316;8.114;2023-04-05T11:06:16;9.5;;;8.8;;
12721;SDS011;6425;50.316;8.114;2023-04-05T11:09:07;9.5;;;8.8;;
12721;SDS011;6425;50.316;8.114;2023-04-05T11:12:00;12.2;;;11.1;;
12721;SDS011;6425;50.316;8.114;2023-04-05T11:15:20;10.8;;;9.6;;
12721;SDS011;6425;50.316;8.114;2023-04-05T11:18:02;10.8;;;9.6;;
12721;SDS011;6425;50.316;8.114;2023-04-05T11:21:04;10.9;;;10;;
12721;SDS011;6425;50.316;8.114;2023-04-05T11:24:01;10.9;;;10;;
12721;SDS011;6425;50.316;8.114;2023-04-05T11:27:00;11.3;;;10.4;;
12721;SDS011;6425;50.316;8.114;2023-04-05T11:30:00;13.6;;;12.1;;
12721;SDS011;6425;50.316;8.114;2023-04-05T11:33:00;13.6;;;12.1;;
12721;SDS011;6425;50.316;8.114;2023-04-05T11:36:00;10.8;;;9.7;;
12721;SDS011;6425;50.316;8.114;2023-04-05T11:39:21;10.8;;;9.7;;
12721;SDS011;6425;50.316;8.114;2023-04-05T11:42:01;10.3;;;9.4;;
12721;SDS011;6425;50.316;8.114;2023-04-05T11:45:00;11.5;;;10.8;;
12721;SDS011;6425;50.316;8.114;2023-04-05T11:48:03;11.5;;;10.8;;
12721;SDS011;6425;50.316;8.114;2023-04-05T11:51:00;10.7;;;9.9;;
12721;SDS011;6425;50.316;8.114;2023-04-05T11:54:00;10.7;;;9.9;;
12721;SDS011;6425;50.316;8.114;2023-04-05T11:57:00;11.4;;;10.6;;
12721;SDS011;6425;50.316;8.114;2023-04-05T12:00:00;10.9;;;10.2;;
12721;SDS011;6425;50.316;8.114;2023-04-05T12:03:00;10.9;;;10.2;;
12721;SDS011;6425;50.316;8.114;2023-04-05T12:06:00;11.9;;;11;;
12721;SDS011;6425;50.316;8.114;2023-04-05T12:09:00;11.6;;;10.7;;
12721;SDS011;6425;50.316;8.114;2023-04-05T12:12:00;10.9;;;10.1;;
12721;SDS011;6425;50.316;8.114;2023-04-05T12:15:00;11.3;;;10.5;;
12721;SDS011;6425;50.316;8.114;2023-04-05T12:18:00;11.3;;;10.5;;
12721;SDS011;6425;50.316;8.114;2023-04-05T12:21:00;11.4;;;10.6;;
12721;SDS011;6425;50.316;8.114;2023-04-05T12:24:00;9.7;;;9;;
12721;SDS011;6425;50.316;8.114;2023-04-05T12:27:00;9.7;;;9;;
12721;SDS011;6425;50.316;8.114;2023-04-05T12:30:04;11;;;10.2;;
12721;SDS011;6425;50.316;8.114;2023-04-05T12:33:00;11;;;10.2;;
12721;SDS011;6425;50.316;8.114;2023-04-05T12:36:03;11.3;;;10.6;;
12721;SDS011;6425;50.316;8.114;2023-04-05T12:39:00;11.4;;;10.7;;
12721;SDS011;6425;50.316;8.114;2023-04-05T12:42:00;11.4;;;10.7;;
12721;SDS011;6425;50.316;8.114;2023-04-05T12:45:01;12;;;11;;
12721;SDS011;6425;50.316;8.114;2023-04-05T12:48:00;12;;;11;;
12721;SDS011;6425;50.316;8.114;2023-04-05T12:51:00;12.3;;;11.3;;
12721;SDS011;6425;50.316;8.114;2023-04-05T12:54:00;11.2;;;10.4;;
12721;SDS011;6425;50.316;8.114;2023-04-05T12:57:00;11.2;;;10.4;;
12721;SDS011;6425;50.316;8.114;2023-04-05T13:00:00;11.4;;;10.5;;
12721;SDS011;6425;50.316;8.114;2023-04-05T13:03:00;11.4;;;10.5;;
12721;SDS011;6425;50.316;8.114;2023-04-05T13:06:00;11.7;;;10.9;;
12721;SDS011;6425;50.316;8.114;2023-04-05T13:09:00;12;;;11.1;;
12721;SDS011;6425;50.316;8.114;2023-04-05T13:12:00;12;;;11.1;;
12721;SDS011;6425;50.316;8.114;2023-04-05T13:15:00;11.3;;;10.5;;
12721;SDS011;6425;50.316;8.114;2023-04-05T13:18:00;11.3;;;10.5;;
12721;SDS011;6425;50.316;8.114;2023-04-05T13:21:00;12.7;;;11.8;;
12721;SDS011;6425;50.316;8.114;2023-04-05T13:24:00;12;;;11.1;;
12721;SDS011;6425;50.316;8.114;2023-04-05T13:27:00;12;;;11.1;;
12721;SDS011;6425;50.316;8.114;2023-04-05T13:30:00;10.1;;;9.3;;
12721;SDS011;6425;50.316;8.114;2023-04-05T13:33:00;10.1;;;9.3;;
12721;SDS011;6425;50.316;8.114;2023-04-05T13:36:00;11.1;;;10.2;;
12721;SDS011;6425;50.316;8.114;2023-04-05T13:39:00;11.7;;;10.9;;
12721;SDS011;6425;50.316;8.114;2023-04-05T13:42:00;11.7;;;10.9;;
12721;SDS011;6425;50.316;8.114;2023-04-05T13:45:00;10.6;;;9.8;;
12721;SDS011;6425;50.316;8.114;2023-04-05T13:48:00;10.6;;;9.8;;
12721;SDS011;6425;50.316;8.114;2023-04-05T13:51:00;10.5;;;9.8;;
12721;SDS011;6425;50.316;8.114;2023-04-05T13:54:00;11.6;;;10.7;;
12721;SDS011;6425;50.316;8.114;2023-04-05T13:57:00;11.6;;;10.7;;
12721;SDS011;6425;50.316;8.114;2023-04-05T14:00:00;11.2;;;10.4;;
12721;SDS011;6425;50.316;8.114;2023-04-05T14:03:00;11.2;;;10.4;;
12721;SDS011;6425;50.316;8.114;2023-04-05T14:06:00;10.3;;;9.5;;
12721;SDS011;6425;50.316;8.114;2023-04-05T14:09:00;11.9;;;11.1;;
12721;SDS011;6425;50.316;8.114;2023-04-05T14:12:00;11.9;;;11.1;;
12721;SDS011;6425;50.316;8.114;2023-04-05T14:15:00;11.8;;;10.7;;
12721;SDS011;6425;50.316;8.114;2023-04-05T14:18:00;11.8;;;10.7;;
12721;SDS011;6425;50.316;8.114;2023-04-05T14:21:00;11.3;;;10.5;;
12721;SDS011;6425;50.316;8.114;2023-04-05T14:24:00;10.4;;;9.6;;
12721;SDS011;6425;50.316;8.114;2023-04-05T14:27:00;10.4;;;9.6;;
12721;SDS011;6425;50.316;8.114;2023-04-05T14:30:00;9.9;;;9.3;;
12721;SDS011;6425;50.316;8.114;2023-04-05T14:33:00;9.9;;;9.3;;
12721;SDS011;6425;50.316;8.114;2023-04-05T14:36:00;10.1;;;9.4;;
12721;SDS011;6425;50.316;8.114;2023-04-05T14:39:00;9.5;;;8.7;;
12721;SDS011;6425;50.316;8.114;2023-04-05T14:42:00;9.5;;;8.7;;
12721;SDS011;6425;50.316;8.114;2023-04-05T14:45:00;10.4;;;9.6;;
12721;SDS011;6425;50.316;8.114;2023-04-05T14:48:00;10.4;;;9.6;;
12721;SDS011;6425;50.316;8.114;2023-04-05T14:51:00;10.2;;;9.4;;
12721;SDS011;6425;50.316;8.114;2023-04-05T14:54:00;11.6;;;10.7;;
12721;SDS011;6425;50.316;8.114;2023-04-05T14:57:00;11.6;;;10.7;;
12721;SDS011;6425;50.316;8.114;2023-04-05T15:00:00;10.5;;;9.8;;
12721;SDS011;6425;50.316;8.114;2023-04-05T15:03:00;10.5;;;9.8;;
12721;SDS011;6425;50.316;8.114;2023-04-05T15:06:00;10.4;;;9.6;;
12721;SDS011;6425;50.316;8.114;2023-04-05T15:09:00;9.8;;;9.1;;
12721;SDS011;6425;50.316;8.114;2023-04-05T15:12:00;9.8;;;9.1;;
12721;SDS011;6425;50.316;8.114;2023-04-05T15:15:00;11.2;;;10.4;;
12721;SDS011;6425;50.316;8.114;2023-04-05T15:18:00;11.2;;;10.4;;
12721;SDS011;6425;50.316;8.114;2023-04-05T15:21:00;10.4;;;9.6;;
12721;SDS011;6425;50.316;8.114;2023-04-05T15:24:00;11.8;;;11;;
12721;SDS011;6425;50.316;8.114;2023-04-05T15:27:00;11.8;;;11;;
12721;SDS011;6425;50.316;8.114;2023-04-05T15:30:00;12.4;;;11.6;;
12721;SDS011;6425;50.316;8.114;2023-04-05T15:33:00;12.4;;;11.6;;
12721;SDS011;6425;50.316;8.114;2023-04-05T15:36:00;11.2;;;10.4;;
12721;SDS011;6425;50.316;8.114;2023-04-05T15:39:00;11.1;;;10.4;;
12721;SDS011;6425;50.316;8.114;2023-04-05T15:42:00;11.1;;;10.4;;
12721;SDS011;6425;50.316;8.114;2023-04-05T15:45:00;11.4;;;10.5;;
12721;SDS011;6425;50.316;8.114;2023-04-05T15:48:00;12.2;;;11.3;;
12721;SDS011;6425;50.316;8.114;2023-04-05T15:51:00;12.2;;;11.3;;
12721;SDS011;6425;50.316;8.114;2023-04-05T15:54:00;11.7;;;10.7;;
12721;SDS011;6425;50.316;8.114;2023-04-05T15:57:00;11.7;;;10.7;;
12721;SDS011;6425;50.316;8.114;2023-04-05T16:00:00;11.8;;;10.9;;
12721;SDS011;6425;50.316;8.114;2023-04-05T16:03:00;12.1;;;11;;
12721;SDS011;6425;50.316;8.114;2023-04-05T16:06:00;12.1;;;11;;
12721;SDS011;6425;50.316;8.114;2023-04-05T16:09:00;11;;;10.3;;
12721;SDS011;6425;50.316;8.114;2023-04-05T16:12:00;11;;;10.3;;
12721;SDS011;6425;50.316;8.114;2023-04-05T16:15:00;12.4;;;11.4;;
12721;SDS011;6425;50.316;8.114;2023-04-05T16:18:00;12.3;;;11.3;;
12721;SDS011;6425;50.316;8.114;2023-04-05T16:21:00;12.3;;;11.3;;
12721;SDS011;6425;50.316;8.114;2023-04-05T16:24:00;11.9;;;11;;
12721;SDS011;6425;50.316;8.114;2023-04-05T16:27:00;11.9;;;11;;
12721;SDS011;6425;50.316;8.114;2023-04-05T16:30:00;13.1;;;12.1;;
12721;SDS011;6425;50.316;8.114;2023-04-05T16:33:00;13.1;;;12.1;;
12721;SDS011;6425;50.316;8.114;2023-04-05T16:36:00;12.3;;;11.4;;
12721;SDS011;6425;50.316;8.114;2023-04-05T16:39:00;12.1;;;11.3;;
12721;SDS011;6425;50.316;8.114;2023-04-05T16:42:00;12.1;;;11.3;;
12721;SDS011;6425;50.316;8.114;2023-04-05T16:45:00;11.8;;;11;;
12721;SDS011;6425;50.316;8.114;2023-04-05T16:48:00;19.5;;;17.7;;
12721;SDS011;6425;50.316;8.114;2023-04-05T16:51:00;19.5;;;17.7;;
12721;SDS011;6425;50.316;8.114;2023-04-05T16:54:00;13.1;;;12.1;;
12721;SDS011;6425;50.316;8.114;2023-04-05T16:57:00;13.1;;;12.1;;
12721;SDS011;6425;50.316;8.114;2023-04-05T17:00:00;11.9;;;10.8;;
12721;SDS011;6425;50.316;8.114;2023-04-05T17:03:00;12.6;;;11.7;;
12721;SDS011;6425;50.316;8.114;2023-04-05T17:06:00;12.6;;;11.7;;
12721;SDS011;6425;50.316;8.114;2023-04-05T17:09:00;10;;;9.3;;
12721;SDS011;6425;50.316;8.114;2023-04-05T17:12:00;10;;;9.3;;
12721;SDS011;6425;50.316;8.114;2023-04-05T17:15:00;9.8;;;9.2;;
12721;SDS011;6425;50.316;8.114;2023-04-05T17:18:00;10.1;;;9.4;;
12721;SDS011;6425;50.316;8.114;2023-04-05T17:21:00;10.1;;;9.4;;
12721;SDS011;6425;50.316;8.114;2023-04-05T17:24:00;10.3;;;9.4;;
12721;SDS011;6425;50.316;8.114;2023-04-05T17:27:00;10.3;;;9.4;;
12721;SDS011;6425;50.316;8.114;2023-04-05T17:30:00;10.8;;;9.8;;
12721;SDS011;6425;50.316;8.114;2023-04-05T17:33:00;10.1;;;9.2;;
12721;SDS011;6425;50.316;8.114;2023-04-05T17:36:00;10.1;;;9.2;;
12721;SDS011;6425;50.316;8.114;2023-04-05T17:39:00;9.8;;;9.1;;
12721;SDS011;6425;50.316;8.114;2023-04-05T17:42:00;9.8;;;9.1;;
12721;SDS011;6425;50.316;8.114;2023-04-05T17:45:00;9.7;;;8.8;;
12721;SDS011;6425;50.316;8.114;2023-04-05T17:48:00;10;;;9.3;;
12721;SDS011;6425;50.316;8.114;2023-04-05T17:51:02;10;;;9.3;;
12721;SDS011;6425;50.316;8.114;2023-04-05T17:54:00;9.5;;;8.8;;
12721;SDS011;6425;50.316;8.114;2023-04-05T17:57:00;9.5;;;8.8;;
12721;SDS011;6425;50.316;8.114;2023-04-05T18:00:00;10.5;;;9.4;;
12721;SDS011;6425;50.316;8.114;2023-04-05T18:03:00;9.2;;;8.3;;
12721;SDS011;6425;50.316;8.114;2023-04-05T18:06:00;9.2;;;8.3;;
12721;SDS011;6425;50.316;8.114;2023-04-05T18:09:00;8.3;;;7.5;;
12721;SDS011;6425;50.316;8.114;2023-04-05T18:12:00;8.3;;;7.5;;
12721;SDS011;6425;50.316;8.114;2023-04-05T18:15:00;8;;;7.1;;
12721;SDS011;6425;50.316;8.114;2023-04-05T18:18:00;9.2;;;7.4;;
12721;SDS011;6425;50.316;8.114;2023-04-05T18:21:00;9.2;;;7.4;;
12721;SDS011;6425;50.316;8.114;2023-04-05T18:24:00;9;;;8.1;;
12721;SDS011;6425;50.316;8.114;2023-04-05T18:27:00;9;;;8.1;;
12721;SDS011;6425;50.316;8.114;2023-04-05T18:30:00;9.3;;;8.5;;
12721;SDS011;6425;50.316;8.114;2023-04-05T18:33:00;7.1;;;6.4;;
12721;SDS011;6425;50.316;8.114;2023-04-05T18:36:00;7.1;;;6.4;;
12721;SDS011;6425;50.316;8.114;2023-04-05T18:39:00;6.9;;;6.2;;
12721;SDS011;6425;50.316;8.114;2023-04-05T18:42:00;6.9;;;6.2;;
12721;SDS011;6425;50.316;8.114;2023-04-05T18:45:00;7.1;;;6.4;;